Time;durP1;ratioP1;P1;durP2;ratioP2;P2;SDS_P1;SDS_P2;PMS_P1;PMS_P2;Temp;Humidity;BMP_temperature;BMP_pressure;BME280_temperature;BME280_humidity;BME280_pressure;Samples;Min_cycle;Max_cycle;Signal;HPM_P1;HPM_P2
2021/12/20 00:01:15;;;;;;;25.65;3.47;;;6.10;99.90;;;;;;5076712;28;20042;-61
2021/12/20 00:03:40;;;;;;;30.95;4.05;;;6.00;99.90;;;;;;5107390;28;20035;-58
2021/12/20 00:06:06;;;;;;;25.95;3.90;;;6.00;99.90;;;;;;5089840;28;20044;-59
2021/12/20 00:08:32;;;;;;;21.13;3.40;;;6.00;99.90;;;;;;5108568;28;20039;-59
2021/12/20 00:10:57;;;;;;;25.15;4.03;;;6.00;99.90;;;;;;5097014;28;20481;-61
2021/12/20 00:13:23;;;;;;;28.63;4.32;;;6.00;99.90;;;;;;5102176;28;20038;-57
2021/12/20 00:15:49;;;;;;;19.08;3.08;;;6.00;99.90;;;;;;5108962;28;20161;-59
2021/12/20 00:18:15;;;;;;;30.17;3.80;;;5.90;99.90;;;;;;5110408;28;20184;-59
2021/12/20 00:20:40;;;;;;;25.77;3.85;;;5.90;99.90;;;;;;5090472;28;20130;-58
2021/12/20 00:23:06;;;;;;;18.48;3.15;;;5.90;99.90;;;;;;5112025;28;20023;-58
2021/12/20 00:25:32;;;;;;;31.42;3.72;;;5.90;99.90;;;;;;5099254;28;20039;-62
2021/12/20 00:28:00;;;;;;;26.45;3.80;;;5.90;99.90;;;;;;5093912;28;20147;-60
2021/12/20 00:30:27;;;;;;;25.20;4.40;;;5.90;99.90;;;;;;5099528;28;20075;-58
2021/12/20 00:32:52;;;;;;;29.02;3.95;;;5.90;99.90;;;;;;5110409;28;20066;-59
2021/12/20 00:35:19;;;;;;;22.20;3.92;;;5.90;99.90;;;;;;5108690;28;20039;-58
2021/12/20 00:40:30;;;;;;;23.05;3.72;;;5.90;99.90;;;;;;5094550;28;20043;-59
2021/12/20 00:43:01;;;;;;;34.28;3.58;;;5.90;99.90;;;;;;5091451;28;20474;-59
2021/12/20 00:45:29;;;;;;;27.70;3.67;;;5.90;99.90;;;;;;5093732;28;20093;-59
2021/12/20 00:47:55;;;;;;;34.05;4.25;;;5.90;99.90;;;;;;5103236;28;20123;-59
2021/12/20 00:50:22;;;;;;;29.90;4.05;;;5.90;99.90;;;;;;5086244;28;20490;-59
2021/12/20 00:52:49;;;;;;;29.58;3.83;;;6.00;99.90;;;;;;5088121;28;20066;-59
2021/12/20 00:55:17;;;;;;;27.40;3.65;;;5.90;99.90;;;;;;5085960;28;20051;-60
2021/12/20 00:57:48;;;;;;;22.73;3.53;;;5.80;99.90;;;;;;5089703;28;20039;-59
2021/12/20 01:00:17;;;;;;;27.08;4.15;;;5.80;99.90;;;;;;5085884;28;20040;-59
2021/12/20 01:02:43;;;;;;;26.67;3.53;;;5.80;99.90;;;;;;5083561;28;20107;-59
2021/12/20 01:05:09;;;;;;;23.90;3.60;;;5.80;99.90;;;;;;5084585;28;20183;-60
2021/12/20 01:07:35;;;;;;;23.80;3.85;;;5.80;99.90;;;;;;5085492;28;20097;-58
2021/12/20 01:10:05;;;;;;;37.35;4.35;;;5.80;99.90;;;;;;5084000;28;20092;-59
2021/12/20 01:12:41;;;;;;;21.80;4.05;;;5.80;99.90;;;;;;5080852;28;20104;-59
2021/12/20 01:15:11;;;;;;;26.35;3.58;;;5.80;99.90;;;;;;5094788;28;20035;-60
2021/12/20 01:17:37;;;;;;;28.85;3.92;;;5.70;99.90;;;;;;5098695;28;20238;-59
2021/12/20 01:20:07;;;;;;;20.92;3.78;;;5.70;99.90;;;;;;5094524;28;20044;-60
2021/12/20 01:22:33;;;;;;;30.83;4.35;;;5.70;99.90;;;;;;5085871;28;20680;-58
2021/12/20 01:24:59;;;;;;;26.48;3.55;;;5.70;99.90;;;;;;5091666;28;20077;-58
2021/12/20 01:27:24;;;;;;;23.92;3.63;;;5.60;99.90;;;;;;5090157;28;20043;-60
2021/12/20 01:29:50;;;;;;;25.88;3.85;;;5.60;99.90;;;;;;5090213;28;20103;-59
2021/12/20 01:32:16;;;;;;;27.20;3.58;;;5.60;99.90;;;;;;5102224;28;20118;-61
2021/12/20 01:34:42;;;;;;;24.60;3.20;;;5.60;99.90;;;;;;5106445;28;20043;-58
2021/12/20 01:37:08;;;;;;;28.70;3.67;;;5.60;99.90;;;;;;5111229;28;20068;-59
2021/12/20 01:39:34;;;;;;;26.13;3.88;;;5.60;99.90;;;;;;5109564;28;20031;-58
2021/12/20 01:42:02;;;;;;;29.42;4.13;;;5.80;99.90;;;;;;5110723;28;20039;-58
2021/12/20 01:44:30;;;;;;;21.73;3.70;;;5.60;99.90;;;;;;5105590;28;20398;-58
2021/12/20 01:46:55;;;;;;;29.13;3.58;;;5.60;99.90;;;;;;5104008;28;20521;-60
2021/12/20 01:49:21;;;;;;;23.05;4.13;;;5.60;99.90;;;;;;5090960;28;20035;-58
2021/12/20 01:52:10;;;;;;;28.05;4.05;;;5.60;99.90;;;;;;5089224;28;20566;-59
2021/12/20 01:54:36;;;;;;;25.98;3.80;;;5.60;99.90;;;;;;5088102;28;20048;-59
2021/12/20 01:57:02;;;;;;;25.33;3.33;;;5.50;99.90;;;;;;5092814;28;20479;-60
2021/12/20 01:59:28;;;;;;;28.02;3.85;;;5.50;99.90;;;;;;5097471;28;20376;-58
2021/12/20 02:01:54;;;;;;;29.42;4.10;;;5.50;99.90;;;;;;5104156;28;20084;-61
2021/12/20 02:04:21;;;;;;;23.15;3.80;;;5.50;99.90;;;;;;5101559;28;20040;-59
2021/12/20 02:06:48;;;;;;;25.80;4.18;;;5.60;99.90;;;;;;5113693;28;20032;-61
2021/12/20 02:09:19;;;;;;;25.90;3.55;;;5.60;99.90;;;;;;5097223;28;20067;-58
2021/12/20 02:11:47;;;;;;;34.97;4.28;;;5.60;99.90;;;;;;5113919;28;20371;-62
2021/12/20 02:14:14;;;;;;;24.75;3.50;;;5.60;99.90;;;;;;5099199;28;20355;-58
2021/12/20 02:16:40;;;;;;;26.20;4.15;;;5.60;99.90;;;;;;5093738;28;20051;-61
2021/12/20 02:19:12;;;;;;;26.83;3.55;;;5.60;99.90;;;;;;5104303;28;20035;-59
2021/12/20 02:21:39;;;;;;;31.40;4.38;;;5.60;99.90;;;;;;5094394;28;20089;-60
2021/12/20 02:24:05;;;;;;;26.85;4.13;;;5.60;99.90;;;;;;5094052;28;20040;-59
2021/12/20 02:26:31;;;;;;;24.60;3.45;;;5.50;99.90;;;;;;5093266;28;20431;-58
2021/12/20 02:29:02;;;;;;;23.77;3.65;;;5.60;99.90;;;;;;5094680;28;20126;-58
2021/12/20 02:37:14;;;;;;;26.13;3.50;;;5.50;99.90;;;;;;5073292;28;20056;-59
2021/12/20 02:39:40;;;;;;;26.10;3.10;;;5.50;99.90;;;;;;5070543;28;20079;-60
2021/12/20 02:42:06;;;;;;;26.90;4.10;;;5.50;99.90;;;;;;5073363;28;20428;-59
2021/12/20 02:44:32;;;;;;;21.10;2.80;;;5.50;99.90;;;;;;5072581;28;21942;-61
2021/12/20 02:49:28;;;;;;;25.17;3.42;;;5.60;99.90;;;;;;5072953;28;20105;-59
2021/12/20 02:52:04;;;;;;;22.42;3.40;;;5.50;99.90;;;;;;5073331;28;21484;-60
2021/12/20 02:54:29;;;;;;;19.88;3.53;;;5.50;99.90;;;;;;5091295;28;20047;-61
2021/12/20 02:56:55;;;;;;;26.05;3.72;;;5.50;99.90;;;;;;5072623;28;20465;-58
2021/12/20 02:59:21;;;;;;;20.35;3.13;;;5.60;99.90;;;;;;5073331;28;20055;-60
2021/12/20 03:02:06;;;;;;;28.25;3.47;;;5.60;99.90;;;;;;5056221;28;20032;-60
2021/12/20 03:04:32;;;;;;;17.05;2.85;;;5.60;99.90;;;;;;5080955;28;20047;-58
2021/12/20 03:07:02;;;;;;;18.23;2.72;;;5.60;99.90;;;;;;5078628;28;20035;-59
2021/12/20 03:09:33;;;;;;;20.55;3.20;;;5.60;99.90;;;;;;5073369;28;20376;-61
2021/12/20 03:12:01;;;;;;;23.33;3.22;;;5.60;99.90;;;;;;5073285;28;20048;-59
2021/12/20 03:14:34;;;;;;;21.92;2.97;;;5.60;99.90;;;;;;5072612;28;20600;-60
2021/12/20 03:17:00;;;;;;;16.83;3.28;;;5.60;99.90;;;;;;5092247;28;20108;-60
2021/12/20 03:19:26;;;;;;;24.40;3.03;;;5.60;99.90;;;;;;5074307;28;20169;-60
2021/12/20 03:21:52;;;;;;;20.15;2.92;;;5.60;99.90;;;;;;5054498;28;20041;-61
2021/12/20 03:24:18;;;;;;;21.65;3.28;;;5.60;99.90;;;;;;5073170;28;20054;-60
2021/12/20 03:26:44;;;;;;;18.70;3.22;;;5.60;99.90;;;;;;5072827;28;20052;-59
2021/12/20 03:29:10;;;;;;;20.90;2.97;;;5.60;99.90;;;;;;5072616;28;20119;-58
2021/12/20 03:31:36;;;;;;;18.10;3.05;;;5.60;99.90;;;;;;5072737;28;20039;-60
2021/12/20 03:34:02;;;;;;;21.23;2.80;;;5.60;99.90;;;;;;5073709;28;20487;-59
2021/12/20 03:36:28;;;;;;;22.10;3.17;;;5.60;99.90;;;;;;5091888;28;20051;-60
2021/12/20 03:38:54;;;;;;;22.98;2.60;;;5.60;99.90;;;;;;5092533;28;20142;-60
2021/12/20 03:41:21;;;;;;;16.25;2.60;;;5.60;99.90;;;;;;5075910;28;20032;-60
2021/12/20 03:43:46;;;;;;;17.73;2.70;;;5.70;99.90;;;;;;5074175;28;20039;-61
2021/12/20 03:46:12;;;;;;;15.90;2.17;;;5.60;99.90;;;;;;5057173;28;20131;-59
2021/12/20 03:48:38;;;;;;;17.30;2.45;;;5.60;99.90;;;;;;5072460;28;20069;-60
2021/12/20 03:51:05;;;;;;;14.55;2.38;;;5.60;99.90;;;;;;5071750;28;20040;-59
2021/12/20 03:53:33;;;;;;;20.13;2.80;;;5.60;99.90;;;;;;5072125;28;20051;-59
2021/12/20 03:56:00;;;;;;;23.42;2.70;;;5.60;99.90;;;;;;5072025;28;20498;-58
2021/12/20 03:58:27;;;;;;;18.90;2.95;;;5.60;99.90;;;;;;5071022;28;20119;-59
2021/12/20 04:00:54;;;;;;;14.75;2.15;;;5.60;99.90;;;;;;5072783;28;20037;-59
2021/12/20 04:03:20;;;;;;;17.08;2.60;;;5.60;99.90;;;;;;5053799;28;20037;-60
2021/12/20 04:05:45;;;;;;;21.80;3.25;;;5.60;99.90;;;;;;5071234;28;20364;-58
2021/12/20 04:08:11;;;;;;;15.85;2.33;;;5.50;99.90;;;;;;5077532;28;20040;-59
2021/12/20 04:10:37;;;;;;;15.85;2.38;;;5.50;99.90;;;;;;5070336;28;20040;-60
2021/12/20 04:13:03;;;;;;;17.42;2.58;;;5.50;99.90;;;;;;5071867;28;20036;-59
2021/12/20 04:15:29;;;;;;;13.75;2.00;;;5.50;99.90;;;;;;5071476;28;20040;-59
2021/12/20 04:17:55;;;;;;;18.30;2.50;;;5.60;99.90;;;;;;5071473;28;20036;-59
2021/12/20 04:20:20;;;;;;;15.18;2.03;;;5.50;99.90;;;;;;5071805;28;20047;-59
2021/12/20 04:22:46;;;;;;;18.55;2.50;;;5.50;99.90;;;;;;5071779;28;20028;-60
2021/12/20 04:25:12;;;;;;;19.23;2.25;;;5.50;99.90;;;;;;5071875;28;20036;-58
2021/12/20 04:27:37;;;;;;;14.93;2.00;;;5.40;99.90;;;;;;5070990;28;20039;-59
2021/12/20 04:30:09;;;;;;;20.35;2.38;;;5.40;99.90;;;;;;5053448;28;20035;-61
2021/12/20 04:32:37;;;;;;;17.80;2.17;;;5.40;99.90;;;;;;5073191;28;20056;-58
2021/12/20 04:35:04;;;;;;;10.07;1.83;;;5.50;99.90;;;;;;5079951;28;20176;-58
2021/12/20 04:37:29;;;;;;;15.32;2.70;;;5.40;99.90;;;;;;5090628;28;20386;-59
2021/12/20 04:39:55;;;;;;;19.08;2.30;;;5.40;99.90;;;;;;5089552;28;20032;-60
2021/12/20 04:42:21;;;;;;;14.95;2.42;;;5.40;99.90;;;;;;5091434;28;20028;-59
2021/12/20 04:44:46;;;;;;;14.82;2.50;;;5.30;99.90;;;;;;5082550;28;20048;-61
2021/12/20 04:47:12;;;;;;;15.75;2.63;;;5.30;99.90;;;;;;5071071;28;20037;-59
2021/12/20 04:49:38;;;;;;;10.65;2.17;;;5.30;99.90;;;;;;5071334;28;20029;-58
2021/12/20 04:52:03;;;;;;;22.95;2.75;;;5.30;99.90;;;;;;5070879;28;20098;-60
2021/12/20 04:54:29;;;;;;;14.15;2.75;;;5.30;99.90;;;;;;5072380;28;20052;-60
2021/12/20 04:56:55;;;;;;;16.63;2.13;;;5.30;99.90;;;;;;5091519;28;20079;-60
2021/12/20 04:59:20;;;;;;;14.93;1.92;;;5.30;99.90;;;;;;5071883;28;20039;-59
2021/12/20 05:01:46;;;;;;;18.40;2.45;;;5.30;99.90;;;;;;5070274;28;20036;-61
2021/12/20 05:04:12;;;;;;;22.10;3.03;;;5.30;99.90;;;;;;5072881;28;20131;-59
2021/12/20 05:06:37;;;;;;;16.63;2.20;;;5.20;99.90;;;;;;5070677;28;20770;-59
2021/12/20 05:09:05;;;;;;;19.88;2.50;;;5.20;99.90;;;;;;5069811;28;20044;-60
2021/12/20 05:11:33;;;;;;;17.02;2.28;;;5.20;99.90;;;;;;5072507;28;20040;-58
2021/12/20 05:14:00;;;;;;;15.48;2.30;;;5.30;99.90;;;;;;5075960;28;20040;-58
2021/12/20 05:16:26;;;;;;;12.93;2.67;;;5.20;99.90;;;;;;5070657;28;20044;-58
2021/12/20 05:18:52;;;;;;;13.00;2.25;;;5.20;99.90;;;;;;5070015;28;20034;-59
2021/12/20 05:21:17;;;;;;;11.98;2.28;;;5.20;99.90;;;;;;5052814;28;20071;-60
2021/12/20 05:23:43;;;;;;;16.27;2.20;;;5.20;99.90;;;;;;5070102;28;20052;-60
2021/12/20 05:26:09;;;;;;;11.32;1.60;;;5.10;99.90;;;;;;5069111;28;20037;-60
2021/12/20 05:28:34;;;;;;;17.27;2.25;;;5.10;99.90;;;;;;5070406;28;20485;-60
2021/12/20 05:31:00;;;;;;;12.27;2.20;;;5.10;99.90;;;;;;5069704;28;20052;-60
2021/12/20 05:33:26;;;;;;;15.80;1.92;;;5.20;99.90;;;;;;5098054;28;20487;-60
2021/12/20 05:35:53;;;;;;;21.23;2.22;;;5.10;99.90;;;;;;5091700;28;20104;-59
2021/12/20 05:38:18;;;;;;;14.80;2.30;;;5.10;99.90;;;;;;5090777;28;20063;-60
2021/12/20 05:40:44;;;;;;;19.40;3.65;;;5.10;99.90;;;;;;5091522;28;20040;-60
2021/12/20 05:43:10;;;;;;;14.95;2.22;;;5.10;99.90;;;;;;5090190;28;20028;-59
2021/12/20 05:45:36;;;;;;;14.43;2.17;;;5.10;99.90;;;;;;5088515;28;20040;-59
2021/12/20 05:48:02;;;;;;;13.32;2.17;;;5.20;99.90;;;;;;5090707;28;20523;-59
2021/12/20 05:50:28;;;;;;;15.63;2.33;;;5.20;99.90;;;;;;5091644;28;20449;-61
2021/12/20 05:52:54;;;;;;;14.52;2.25;;;5.20;99.90;;;;;;5090310;28;20044;-58
2021/12/20 05:55:19;;;;;;;16.55;2.60;;;5.20;99.90;;;;;;5090772;28;20097;-61
2021/12/20 05:57:46;;;;;;;14.95;2.10;;;5.20;99.90;;;;;;5090128;28;20055;-59
2021/12/20 06:00:16;;;;;;;13.27;1.77;;;5.20;99.90;;;;;;5090045;28;20032;-58
2021/12/20 06:02:43;;;;;;;12.15;1.92;;;5.20;99.90;;;;;;5090229;28;20089;-60
2021/12/20 06:05:09;;;;;;;17.27;2.15;;;5.20;99.90;;;;;;5093477;28;20040;-58
2021/12/20 06:07:39;;;;;;;14.80;2.30;;;5.20;99.90;;;;;;5073752;28;22015;-59
2021/12/20 06:10:06;;;;;;;13.10;1.98;;;5.20;99.90;;;;;;5110980;28;20088;-58
2021/12/20 06:12:32;;;;;;;16.13;2.40;;;5.20;99.90;;;;;;5108185;28;20036;-59
2021/12/20 06:14:58;;;;;;;15.20;2.40;;;5.20;99.90;;;;;;5094882;28;20031;-59
2021/12/20 06:17:23;;;;;;;10.02;2.00;;;5.20;99.90;;;;;;5108681;28;20435;-58
2021/12/20 06:19:49;;;;;;;12.52;2.28;;;5.10;99.90;;;;;;5091617;28;20046;-59
2021/12/20 06:22:15;;;;;;;17.60;3.10;;;5.10;99.90;;;;;;5090092;28;20575;-59
2021/12/20 06:24:40;;;;;;;12.13;2.80;;;5.10;99.90;;;;;;5090249;28;20032;-60
2021/12/20 06:27:06;;;;;;;14.25;3.03;;;5.10;99.90;;;;;;5090442;28;20118;-58
2021/12/20 06:29:32;;;;;;;14.70;2.53;;;5.10;99.90;;;;;;5090779;28;20071;-60
2021/12/20 06:31:58;;;;;;;14.68;2.58;;;5.10;99.90;;;;;;5090354;28;20036;-60
2021/12/20 06:34:24;;;;;;;10.52;2.30;;;5.10;99.90;;;;;;5091749;28;20068;-60
2021/12/20 06:36:49;;;;;;;12.98;1.98;;;5.00;99.90;;;;;;5093461;28;20056;-59
2021/12/20 06:39:16;;;;;;;12.77;2.25;;;5.00;99.90;;;;;;5093829;28;20032;-59
2021/12/20 06:41:42;;;;;;;14.80;2.13;;;5.00;99.90;;;;;;5079203;28;20501;-60
2021/12/20 06:44:08;;;;;;;8.88;1.90;;;5.10;99.90;;;;;;5097122;28;20028;-59
2021/12/20 06:46:43;;;;;;;10.95;2.20;;;5.00;99.90;;;;;;5092943;28;20032;-58
2021/12/20 06:49:10;;;;;;;10.38;1.70;;;5.10;99.90;;;;;;5092449;28;20055;-59
2021/12/20 06:51:42;;;;;;;13.48;1.90;;;5.00;99.90;;;;;;5093324;28;20035;-61
2021/12/20 06:54:09;;;;;;;11.80;2.05;;;5.10;99.90;;;;;;5094525;28;20043;-59
2021/12/20 06:56:35;;;;;;;11.93;2.05;;;5.10;99.90;;;;;;5083967;28;20040;-60
2021/12/20 06:59:00;;;;;;;14.60;1.67;;;5.10;99.90;;;;;;5093078;28;20544;-59
2021/12/20 07:01:26;;;;;;;13.10;1.90;;;5.10;99.90;;;;;;5100019;28;20047;-58
2021/12/20 07:03:52;;;;;;;13.27;1.90;;;5.10;99.90;;;;;;5108552;28;20036;-58
2021/12/20 07:06:17;;;;;;;18.95;2.35;;;5.10;99.90;;;;;;5101073;28;20118;-58
2021/12/20 07:08:43;;;;;;;12.35;1.98;;;5.10;99.90;;;;;;5113466;28;20078;-59
2021/12/20 07:11:09;;;;;;;17.55;2.22;;;5.10;99.90;;;;;;5108227;28;20104;-59
2021/12/20 07:13:36;;;;;;;13.23;1.83;;;5.10;99.90;;;;;;5093200;28;20096;-60
2021/12/20 07:16:02;;;;;;;13.80;2.33;;;5.10;99.90;;;;;;5093231;28;20044;-60
2021/12/20 07:18:27;;;;;;;14.93;1.75;;;5.30;99.90;;;;;;5092728;28;20108;-59
2021/12/20 07:20:53;;;;;;;13.27;2.10;;;5.10;99.90;;;;;;5092836;28;20122;-59
2021/12/20 07:23:20;;;;;;;14.77;2.33;;;5.10;99.90;;;;;;5092768;28;20043;-58
2021/12/20 07:25:46;;;;;;;19.90;2.47;;;5.20;99.90;;;;;;5092616;28;20044;-61
2021/12/20 07:28:13;;;;;;;10.40;1.98;;;5.00;99.90;;;;;;5092000;28;20387;-59
2021/12/20 07:30:39;;;;;;;15.98;2.53;;;5.40;99.90;;;;;;5093505;28;20050;-59
2021/12/20 07:33:05;;;;;;;16.02;2.55;;;5.00;99.90;;;;;;5092624;28;20048;-60
2021/12/20 07:35:31;;;;;;;8.25;2.00;;;5.00;99.90;;;;;;5076751;28;20053;-59
2021/12/20 07:38:00;;;;;;;12.70;2.40;;;5.00;99.90;;;;;;5072332;28;20076;-58
2021/12/20 07:40:25;;;;;;;14.10;2.70;;;5.00;99.90;;;;;;5071525;28;20499;-60
2021/12/20 07:42:51;;;;;;;16.42;2.42;;;5.00;99.90;;;;;;5073062;28;20064;-59
2021/12/20 07:45:18;;;;;;;13.25;2.40;;;4.90;99.90;;;;;;5070949;28;20039;-60
2021/12/20 07:47:43;;;;;;;16.02;2.78;;;4.90;99.90;;;;;;5070274;28;20047;-60
2021/12/20 07:50:09;;;;;;;12.43;2.45;;;4.90;99.90;;;;;;5058599;28;20086;-59
2021/12/20 07:52:35;;;;;;;14.10;2.33;;;4.80;99.90;;;;;;5054179;28;20044;-60
2021/12/20 07:55:01;;;;;;;17.73;2.40;;;4.80;99.90;;;;;;5054630;28;20545;-59
2021/12/20 07:57:27;;;;;;;12.82;2.15;;;4.80;99.90;;;;;;5071815;28;20028;-59
2021/12/20 07:59:53;;;;;;;12.75;2.25;;;4.80;99.90;;;;;;5071939;28;20119;-60
2021/12/20 08:02:19;;;;;;;15.68;2.30;;;4.70;99.90;;;;;;5071853;28;20119;-61
2021/12/20 08:04:49;;;;;;;15.02;2.10;;;4.70;99.90;;;;;;5072450;28;20032;-58
2021/12/20 08:07:15;;;;;;;12.40;2.10;;;4.70;99.90;;;;;;5091046;28;20115;-61
2021/12/20 08:09:41;;;;;;;12.80;2.53;;;4.70;99.90;;;;;;5083818;28;20071;-60
2021/12/20 08:12:07;;;;;;;13.18;2.30;;;4.70;99.90;;;;;;5071879;28;20043;-59
2021/12/20 08:14:34;;;;;;;12.82;2.30;;;4.70;99.90;;;;;;5073009;28;20463;-60
2021/12/20 08:16:59;;;;;;;11.10;2.60;;;4.80;99.90;;;;;;5072154;28;20037;-59
2021/12/20 08:19:25;;;;;;;11.82;2.25;;;4.80;99.90;;;;;;5073502;28;20059;-59
2021/12/20 08:21:51;;;;;;;10.95;2.50;;;4.80;99.90;;;;;;5053488;28;20123;-60
2021/12/20 08:24:17;;;;;;;11.55;2.45;;;4.80;99.90;;;;;;5071843;28;20091;-59
2021/12/20 08:26:42;;;;;;;9.13;2.17;;;4.80;99.90;;;;;;5071519;28;20078;-58
2021/12/20 08:29:08;;;;;;;9.55;2.38;;;4.80;99.90;;;;;;5072391;28;20039;-59
2021/12/20 08:31:36;;;;;;;8.98;2.10;;;4.80;99.90;;;;;;5071775;28;20494;-60
2021/12/20 08:34:03;;;;;;;11.15;2.50;;;4.80;99.90;;;;;;5071748;28;20051;-59
2021/12/20 08:36:29;;;;;;;14.02;2.70;;;4.80;99.90;;;;;;5072723;28;20036;-60
2021/12/20 08:38:54;;;;;;;16.10;2.85;;;4.80;99.90;;;;;;5071784;28;20498;-59
2021/12/20 08:41:20;;;;;;;15.35;2.75;;;4.80;99.90;;;;;;5071030;28;20484;-60
2021/12/20 08:43:46;;;;;;;12.60;2.17;;;4.80;99.90;;;;;;5070388;28;20115;-59
2021/12/20 08:46:13;;;;;;;13.45;2.90;;;4.90;99.90;;;;;;5071546;28;20074;-59
2021/12/20 08:48:40;;;;;;;11.40;2.38;;;4.90;99.90;;;;;;5071465;28;20075;-59
2021/12/20 08:51:06;;;;;;;9.85;2.13;;;4.90;99.90;;;;;;5072533;28;20080;-61
2021/12/20 08:53:32;;;;;;;13.40;2.75;;;4.90;99.90;;;;;;5071189;28;20040;-59
2021/12/20 08:55:58;;;;;;;15.60;3.33;;;4.90;99.90;;;;;;5071428;28;20036;-58
2021/12/20 08:58:25;;;;;;;16.60;3.38;;;5.00;99.90;;;;;;5069972;28;20040;-58
2021/12/20 09:00:51;;;;;;;15.90;3.65;;;5.00;99.90;;;;;;5071465;28;20380;-60
2021/12/20 09:03:17;;;;;;;16.48;4.07;;;5.00;99.90;;;;;;5070420;28;20039;-59
2021/12/20 09:05:42;;;;;;;19.83;3.92;;;5.00;99.90;;;;;;5071345;28;20037;-58
2021/12/20 09:08:10;;;;;;;17.23;3.03;;;5.00;99.90;;;;;;5069480;28;20170;-60
2021/12/20 09:10:37;;;;;;;21.98;3.33;;;5.00;99.90;;;;;;5077398;28;20035;-59
2021/12/20 09:13:04;;;;;;;12.65;2.55;;;5.00;99.90;;;;;;5071831;28;20077;-60
2021/12/20 09:15:31;;;;;;;20.15;2.90;;;5.00;99.90;;;;;;5071890;28;20041;-60
2021/12/20 09:17:57;;;;;;;17.65;2.63;;;4.90;99.90;;;;;;5071644;28;20044;-59
2021/12/20 09:20:24;;;;;;;17.27;2.60;;;4.90;99.90;;;;;;5070745;28;20570;-58
2021/12/20 09:22:52;;;;;;;19.33;3.17;;;4.90;99.90;;;;;;5065198;28;20250;-60
2021/12/20 09:25:24;;;;;;;19.27;2.60;;;4.90;99.90;;;;;;5069054;28;20036;-59
2021/12/20 09:27:52;;;;;;;17.83;2.95;;;4.90;99.90;;;;;;5084889;28;20094;-60
2021/12/20 09:30:19;;;;;;;18.85;3.20;;;4.90;99.90;;;;;;5068615;28;20062;-58
2021/12/20 09:32:45;;;;;;;19.75;3.25;;;5.00;99.90;;;;;;5058955;28;20403;-58
2021/12/20 09:35:12;;;;;;;21.70;2.92;;;5.00;99.90;;;;;;5076387;28;20052;-59
2021/12/20 09:37:39;;;;;;;19.40;3.20;;;5.00;99.90;;;;;;5081268;28;20778;-60
2021/12/20 09:40:07;;;;;;;15.98;2.97;;;5.10;99.90;;;;;;5075812;28;20035;-61
2021/12/20 09:42:34;;;;;;;24.48;3.67;;;5.10;99.90;;;;;;5090656;28;20039;-60
2021/12/20 09:45:02;;;;;;;20.75;3.15;;;5.20;99.90;;;;;;5089514;28;20705;-60
2021/12/20 09:47:32;;;;;;;19.55;3.20;;;5.20;99.90;;;;;;5089986;28;20043;-60
2021/12/20 09:50:03;;;;;;;21.90;3.10;;;5.20;99.90;;;;;;5078304;28;20093;-60
2021/12/20 09:52:29;;;;;;;23.55;3.03;;;5.30;99.90;;;;;;5077297;28;20036;-60
2021/12/20 09:54:54;;;;;;;23.48;3.78;;;5.30;99.90;;;;;;5073190;28;20101;-59
2021/12/20 09:57:21;;;;;;;22.45;3.63;;;5.30;99.90;;;;;;5071334;28;20038;-58
2021/12/20 09:59:50;;;;;;;23.30;3.80;;;5.30;99.90;;;;;;5073933;28;20088;-61
2021/12/20 10:02:18;;;;;;;25.42;4.20;;;5.30;99.90;;;;;;5072834;28;20042;-58
2021/12/20 10:04:44;;;;;;;23.65;3.25;;;5.40;99.90;;;;;;5072534;28;20052;-59
2021/12/20 10:07:11;;;;;;;21.88;3.65;;;5.40;99.90;;;;;;5074046;28;20096;-58
2021/12/20 10:09:40;;;;;;;21.85;3.80;;;5.40;99.90;;;;;;5056837;28;20046;-58
2021/12/20 10:12:17;;;;;;;21.10;3.08;;;5.50;99.90;;;;;;5075479;28;20450;-59
2021/12/20 10:14:57;;;;;;;23.83;3.35;;;5.50;99.90;;;;;;5054952;28;20090;-60
2021/12/20 10:17:29;;;;;;;24.63;4.78;;;5.60;99.90;;;;;;5075052;28;20035;-60
2021/12/20 10:19:56;;;;;;;26.67;3.78;;;5.80;99.90;;;;;;5077342;28;20341;-61
2021/12/20 10:22:24;;;;;;;25.73;3.58;;;6.00;99.90;;;;;;5076107;28;20459;-60
2021/12/20 10:24:50;;;;;;;25.75;4.38;;;6.30;99.90;;;;;;5088667;28;20120;-60
2021/12/20 10:27:30;;;;;;;26.05;3.55;;;6.60;99.90;;;;;;5093391;28;20475;-58
2021/12/20 10:29:56;;;;;;;26.02;3.90;;;7.00;99.90;;;;;;5074384;28;20518;-59
2021/12/20 10:32:39;;;;;;;23.98;3.78;;;7.30;99.90;;;;;;5077060;28;20123;-60
2021/12/20 10:35:25;;;;;;;26.65;4.10;;;7.60;99.90;;;;;;5085381;28;20160;-60
2021/12/20 10:37:55;;;;;;;20.92;3.55;;;7.80;99.90;;;;;;5089410;28;20044;-60
2021/12/20 10:40:21;;;;;;;26.77;4.00;;;8.00;99.90;;;;;;5088856;28;20028;-60
2021/12/20 10:42:49;;;;;;;26.23;3.92;;;8.20;99.90;;;;;;5091848;28;20047;-59
2021/12/20 10:45:20;;;;;;;27.15;3.63;;;8.30;99.90;;;;;;5088109;28;20475;-58
2021/12/20 10:47:47;;;;;;;21.35;3.55;;;8.50;99.90;;;;;;5090313;28;20122;-61
2021/12/20 10:50:34;;;;;;;28.23;3.88;;;8.60;99.90;;;;;;5076180;28;20093;-60
2021/12/20 10:53:22;;;;;;;25.05;3.45;;;8.70;99.90;;;;;;5093572;28;20051;-62
2021/12/20 10:55:54;;;;;;;25.50;4.18;;;8.80;99.90;;;;;;5090108;28;20177;-61
2021/12/20 10:58:34;;;;;;;20.10;3.47;;;8.80;99.90;;;;;;5087426;28;20020;-59
2021/12/20 11:01:03;;;;;;;26.65;3.90;;;8.60;99.90;;;;;;5087464;28;20387;-60
2021/12/20 11:03:35;;;;;;;33.05;3.42;;;8.30;99.90;;;;;;5088541;28;20119;-58
2021/12/20 11:11:20;;;;;;;23.83;4.07;;;8.00;99.90;;;;;;5073291;28;20036;-60
2021/12/20 11:13:46;;;;;;;26.85;4.43;;;8.10;99.90;;;;;;5084910;28;20510;-60
2021/12/20 11:16:25;;;;;;;33.03;4.55;;;8.20;99.90;;;;;;5085447;28;21762;-60
2021/12/20 11:19:18;;;;;;;29.95;4.70;;;8.30;99.90;;;;;;5081858;28;20087;-61
2021/12/20 11:21:48;;;;;;;21.30;3.75;;;8.40;99.90;;;;;;5084296;28;20024;-62
2021/12/20 11:24:18;;;;;;;25.52;4.45;;;8.50;99.90;;;;;;5086338;28;20068;-61
2021/12/20 11:26:44;;;;;;;25.13;4.55;;;8.50;99.90;;;;;;5072195;28;20035;-60
2021/12/20 11:29:10;;;;;;;26.02;4.35;;;8.60;99.90;;;;;;5070167;28;20047;-61
2021/12/20 11:31:40;;;;;;;26.88;4.22;;;8.80;99.90;;;;;;5084848;28;20198;-61
2021/12/20 11:34:06;;;;;;;24.40;3.83;;;8.80;99.90;;;;;;5071990;28;20514;-61
2021/12/20 11:36:33;;;;;;;31.55;4.20;;;9.00;99.90;;;;;;5085577;28;20048;-61
2021/12/20 11:39:03;;;;;;;20.45;4.90;;;9.30;99.90;;;;;;5073472;28;20039;-61
2021/12/20 11:41:30;;;;;;;23.80;4.22;;;9.20;99.90;;;;;;5083319;28;20060;-62
2021/12/20 11:43:57;;;;;;;34.17;4.88;;;9.30;99.90;;;;;;5087188;28;20055;-61
2021/12/20 11:46:29;;;;;;;27.40;4.78;;;9.40;99.90;;;;;;5084304;28;20061;-60
2021/12/20 11:48:57;;;;;;;25.50;4.82;;;9.50;99.90;;;;;;5089277;28;20039;-61
2021/12/20 11:51:23;;;;;;;30.40;4.68;;;9.50;99.90;;;;;;5089647;28;20051;-60
2021/12/20 11:53:49;;;;;;;30.90;4.28;;;9.40;99.90;;;;;;5091312;28;20031;-60
2021/12/20 11:56:14;;;;;;;27.58;3.90;;;9.40;99.90;;;;;;5081802;28;20035;-58
2021/12/20 11:58:47;;;;;;;25.02;4.60;;;9.40;99.90;;;;;;5075318;28;20131;-61
2021/12/20 12:01:16;;;;;;;19.55;3.78;;;9.40;99.90;;;;;;5073829;28;20041;-59
2021/12/20 12:03:55;;;;;;;20.50;3.95;;;9.40;99.90;;;;;;5076831;28;20046;-59
2021/12/20 12:06:28;;;;;;;22.15;4.15;;;9.50;99.90;;;;;;5077967;28;20448;-61
2021/12/20 12:08:58;;;;;;;29.63;4.35;;;9.50;99.90;;;;;;5075544;28;20097;-60
2021/12/20 12:11:24;;;;;;;19.50;3.33;;;9.50;99.90;;;;;;5075272;28;20130;-60
2021/12/20 12:14:20;;;;;;;23.08;3.95;;;9.60;99.90;;;;;;5087956;28;20484;-60
2021/12/20 12:17:02;;;;;;;19.63;3.90;;;9.70;99.90;;;;;;5087623;28;20040;-61
2021/12/20 12:19:46;;;;;;;21.95;3.10;;;9.70;99.90;;;;;;5087752;28;20040;-60
2021/12/20 12:22:27;;;;;;;18.80;3.38;;;9.70;99.90;;;;;;5091086;28;20081;-58
2021/12/20 12:24:55;;;;;;;20.30;3.28;;;9.60;99.90;;;;;;5087767;28;20150;-60
2021/12/20 12:27:28;;;;;;;24.70;3.92;;;9.60;99.90;;;;;;5092690;28;20031;-61
2021/12/20 12:30:12;;;;;;;20.80;3.50;;;9.60;99.90;;;;;;5090615;28;20067;-59
2021/12/20 12:32:58;;;;;;;20.73;5.40;;;9.60;99.90;;;;;;5073367;28;20039;-61
2021/12/20 12:35:39;;;;;;;19.70;3.92;;;9.70;99.90;;;;;;5060533;28;20052;-59
2021/12/20 12:38:22;;;;;;;22.75;5.07;;;9.80;99.90;;;;;;5071235;28;20036;-60
2021/12/20 12:41:13;;;;;;;12.97;3.43;;;9.80;99.90;;;;;;5067645;28;20530;-60
2021/12/20 12:44:07;;;;;;;17.33;3.10;;;9.90;99.90;;;;;;5068754;28;20036;-59
2021/12/20 12:46:36;;;;;;;13.77;2.75;;;9.90;99.90;;;;;;5066303;28;20443;-62
2021/12/20 12:49:23;;;;;;;15.32;2.70;;;10.10;99.90;;;;;;5068864;28;20037;-60
2021/12/20 12:51:54;;;;;;;16.52;2.78;;;10.10;99.90;;;;;;5068903;28;20124;-59
2021/12/20 12:54:32;;;;;;;15.48;2.80;;;10.00;99.90;;;;;;5066112;28;20028;-60
2021/12/20 12:57:24;;;;;;;12.60;2.63;;;10.00;99.90;;;;;;5070374;28;20047;-61
2021/12/20 12:59:50;;;;;;;14.98;3.08;;;10.00;99.90;;;;;;5064755;28;20040;-60
2021/12/20 13:02:23;;;;;;;13.00;2.63;;;10.00;99.90;;;;;;5068753;28;20876;-60
2021/12/20 13:04:52;;;;;;;11.48;2.20;;;10.10;99.90;;;;;;5064553;28;21892;-60
2021/12/20 13:07:18;;;;;;;11.70;2.45;;;10.10;99.90;;;;;;5057627;28;20234;-59
2021/12/20 13:09:46;;;;;;;8.40;1.50;;;10.00;99.90;;;;;;5057242;28;20796;-60